Soundguardian — WDI8675 — position and weather

sailwx.info

Track history (hours):
 
Tides and Currents Weather Stations Pressure Air Temp Water Temp Dewpoint Dewpoint Depression Visibility Wind Speed Wind Dir Waves Ship Positions

Soundguardian

Owner: King County Environmental Laboratory, Seattle, WA. More information available from US FCC via Universal Licensing System and Coast Guard Vessel Documentation Center.

Last reported at 2018-Jun-19 16:01 UTC. Time now 2018-Jun-19 16:07 UTC.
Position N 47°32' W 122°24'.

Length 13 m; draft 1 m.

Type: Other ship. MMSI: 367741020.

Date/timePositionNaut miles runAvg speedWind from/ knotsBaromVisibWave heightAir tempDewpointWater temp
2018-Jun-19 16:01N 47°32' W 122°24'2 4.1
2018-Jun-19 15:31N 47°34' W 122°25'2 3.7
2018-Jun-19 15:01N 47°36' W 122°26'4 8.5
2018-Jun-19 14:30N 47°40' W 122°24'1 3.0
2018-Jun-19 14:00N 47°40' W 122°23'1 0.0
2018-Jun-18 21:55N 47°39' W 122°22'2 3.9
2018-Jun-18 21:30N 47°40' W 122°24'2 3.9
2018-Jun-18 21:00N 47°39' W 122°26'711.5
2018-Jun-18 20:26N 47°33' W 122°21'2 3.5
2018-Jun-18 19:57N 47°32' W 122°19'3 5.9
2018-Jun-18 19:30N 47°34' W 122°21'1 1.3
2018-Jun-18 19:00N 47°35' W 122°21'2 3.0
2018-Jun-18 18:29N 47°36' W 122°21'1 1.8
2018-Jun-18 18:00N 47°37' W 122°22'4 8.7
2018-Jun-18 17:30N 47°40' W 122°27'713.8
2018-Jun-18 17:00N 47°46' W 122°25'0 0.3
2018-Jun-18 16:30N 47°47' W 122°25'2 4.3
2018-Jun-18 16:00N 47°44' W 122°26'0 0.2
2018-Jun-18 15:30N 47°45' W 122°26'2 5.0
2018-Jun-18 15:01N 47°43' W 122°23'3 5.1
2018-Jun-18 14:30N 47°40' W 122°24'2 4.4
2018-Jun-18 14:00N 47°39' W 122°22'  
2018-Jun-11 21:13N 47°39' W 122°22'1 3.1
2018-Jun-11 21:00N 47°39' W 122°21'0 0.4
2018-Jun-11 20:30N 47°39' W 122°21'2 4.1
2018-Jun-11 19:58N 47°39' W 122°17'817.2
2018-Jun-11 19:30N 47°31' W 122°14'6 5.1
2018-Jun-11 18:23N 47°37' W 122°15'1 3.6
2018-Jun-11 18:00N 47°38' W 122°16'4 4.9
2018-Jun-11 17:14N 47°42' W 122°15'1 3.3
2018-Jun-11 17:00N 47°41' W 122°14'4 7.2
2018-Jun-11 16:29N 47°39' W 122°18'2 3.2
2018-Jun-11 16:00N 47°38' W 122°20'0 0.5
2018-Jun-11 15:30N 47°38' W 122°20'3 5.3
2018-Jun-11 15:00N 47°40' W 122°23'1 2.7
2018-Jun-11 14:30N 47°39' W 122°22'0 0.0
2018-Jun-11 14:00N 47°39' W 122°22'  
Track history (hours):
 
Tides and Currents Weather Stations Pressure Air Temp Water Temp Dewpoint Dewpoint Depression Visibility Wind Speed Wind Dir Waves Ship Positions

Soundguardian

Owner: King County Environmental Laboratory, Seattle, WA. More information available from US FCC via Universal Licensing System and Coast Guard Vessel Documentation Center.

Last reported at 2018-Jun-19 16:01 UTC. Time now 2018-Jun-19 16:07 UTC.
Position N 47°32' W 122°24'.

Length 13 m; draft 1 m.

Type: Other ship. MMSI: 367741020.

Date/timePositionNaut miles runAvg speedWind from/ knotsBaromVisibWave heightAir tempDewpointWater temp
2018-Jun-19 16:01N 47°32' W 122°24'2 4.1
2018-Jun-19 15:31N 47°34' W 122°25'2 3.7
2018-Jun-19 15:01N 47°36' W 122°26'4 8.5
2018-Jun-19 14:30N 47°40' W 122°24'1 3.0
2018-Jun-19 14:00N 47°40' W 122°23'1 0.0
2018-Jun-18 21:55N 47°39' W 122°22'2 3.9
2018-Jun-18 21:30N 47°40' W 122°24'2 3.9
2018-Jun-18 21:00N 47°39' W 122°26'711.5
2018-Jun-18 20:26N 47°33' W 122°21'2 3.5
2018-Jun-18 19:57N 47°32' W 122°19'3 5.9
2018-Jun-18 19:30N 47°34' W 122°21'1 1.3
2018-Jun-18 19:00N 47°35' W 122°21'2 3.0
2018-Jun-18 18:29N 47°36' W 122°21'1 1.8
2018-Jun-18 18:00N 47°37' W 122°22'4 8.7
2018-Jun-18 17:30N 47°40' W 122°27'713.8
2018-Jun-18 17:00N 47°46' W 122°25'0 0.3
2018-Jun-18 16:30N 47°47' W 122°25'2 4.3
2018-Jun-18 16:00N 47°44' W 122°26'0 0.2
2018-Jun-18 15:30N 47°45' W 122°26'2 5.0
2018-Jun-18 15:01N 47°43' W 122°23'3 5.1
2018-Jun-18 14:30N 47°40' W 122°24'2 4.4
2018-Jun-18 14:00N 47°39' W 122°22'  
2018-Jun-11 21:13N 47°39' W 122°22'1 3.1
2018-Jun-11 21:00N 47°39' W 122°21'0 0.4
2018-Jun-11 20:30N 47°39' W 122°21'2 4.1
2018-Jun-11 19:58N 47°39' W 122°17'817.2
2018-Jun-11 19:30N 47°31' W 122°14'6 5.1
2018-Jun-11 18:23N 47°37' W 122°15'1 3.6
2018-Jun-11 18:00N 47°38' W 122°16'4 4.9
2018-Jun-11 17:14N 47°42' W 122°15'1 3.3
2018-Jun-11 17:00N 47°41' W 122°14'4 7.2
2018-Jun-11 16:29N 47°39' W 122°18'2 3.2
2018-Jun-11 16:00N 47°38' W 122°20'0 0.5
2018-Jun-11 15:30N 47°38' W 122°20'3 5.3
2018-Jun-11 15:00N 47°40' W 122°23'1 2.7
2018-Jun-11 14:30N 47°39' W 122°22'0 0.0
2018-Jun-11 14:00N 47°39' W 122°22'  

Dump ship's entire track history